Time;durP1;ratioP1;P1;durP2;ratioP2;P2;SDS_P1;SDS_P2;PMS_P1;PMS_P2;Temp;Humidity;BMP_temperature;BMP_pressure;BME280_temperature;BME280_humidity;BME280_pressure;Samples;Min_cycle;Max_cycle;Signal;HPM_P1;HPM_P2
2023/10/05 00:01:24;;;;;;;5.27;3.10;;;13.90;99.90;;;;;;4995986;28;21795;-63
2023/10/05 00:03:52;;;;;;;6.30;2.50;;;13.90;99.90;;;;;;4984572;28;20553;-63
2023/10/05 00:06:24;;;;;;;3.97;2.97;;;14.00;99.90;;;;;;4983807;28;20579;-63
2023/10/05 00:08:53;;;;;;;4.53;2.70;;;14.00;99.90;;;;;;4986677;28;20508;-63
2023/10/05 00:11:29;;;;;;;7.10;3.23;;;14.00;99.90;;;;;;4991002;28;20472;-63
2023/10/05 00:14:04;;;;;;;5.57;2.87;;;14.00;99.90;;;;;;4985255;28;20488;-63
2023/10/05 00:16:37;;;;;;;6.37;3.07;;;14.00;99.90;;;;;;4989049;28;20870;-63
2023/10/05 00:19:10;;;;;;;3.73;3.37;;;14.00;99.90;;;;;;4979188;28;20476;-63
2023/10/05 00:21:42;;;;;;;6.30;3.30;;;14.00;99.90;;;;;;4985513;28;20473;-63
2023/10/05 00:24:11;;;;;;;5.60;2.77;;;14.00;99.90;;;;;;4984281;28;20532;-63
2023/10/05 00:26:39;;;;;;;5.43;2.80;;;14.10;99.90;;;;;;4991569;28;20497;-63
2023/10/05 00:29:18;;;;;;;8.80;2.97;;;14.00;99.90;;;;;;4985848;28;20476;-64
2023/10/05 00:31:47;;;;;;;5.57;3.10;;;14.10;99.90;;;;;;4987581;28;20476;-63
2023/10/05 00:34:22;;;;;;;4.00;2.53;;;14.10;99.90;;;;;;4984330;28;20973;-63
2023/10/05 00:36:51;;;;;;;5.37;2.40;;;14.10;99.90;;;;;;4984318;28;20480;-63
2023/10/05 00:39:20;;;;;;;4.40;2.30;;;14.10;99.90;;;;;;4981296;28;20483;-63
2023/10/05 00:41:55;;;;;;;6.27;2.87;;;14.10;99.90;;;;;;4986124;28;20552;-63
2023/10/05 00:44:24;;;;;;;3.63;2.37;;;14.10;99.90;;;;;;4992557;28;20498;-63
2023/10/05 00:46:53;;;;;;;7.50;3.60;;;14.10;99.90;;;;;;4991023;28;20489;-64
2023/10/05 00:49:27;;;;;;;4.80;2.47;;;14.10;99.90;;;;;;4983623;28;20712;-63
2023/10/05 00:52:07;;;;;;;4.43;2.50;;;14.00;99.90;;;;;;4983313;28;20475;-63
2023/10/05 00:54:36;;;;;;;5.53;2.67;;;14.10;99.90;;;;;;4989624;28;20488;-63
2023/10/05 00:57:09;;;;;;;4.30;2.70;;;14.10;99.90;;;;;;4983904;28;20539;-63
2023/10/05 00:59:39;;;;;;;4.20;2.67;;;14.10;99.90;;;;;;4981581;28;20547;-63
2023/10/05 01:02:14;;;;;;;5.53;2.93;;;14.10;99.90;;;;;;4978899;28;20590;-63
2023/10/05 01:04:56;;;;;;;3.97;2.40;;;14.10;99.90;;;;;;4978110;28;20579;-63
2023/10/05 01:07:43;;;;;;;6.13;2.67;;;14.10;99.90;;;;;;4981567;28;20499;-63
2023/10/05 01:10:40;;;;;;;3.87;2.50;;;14.10;99.90;;;;;;4974564;28;20473;-64
2023/10/05 01:13:31;;;;;;;4.50;2.50;;;14.10;99.90;;;;;;4978397;28;20546;-63
2023/10/05 01:16:15;;;;;;;5.20;2.47;;;14.10;99.90;;;;;;4981959;28;20491;-63
2023/10/05 01:18:44;;;;;;;10.13;3.00;;;14.10;99.90;;;;;;4977076;28;20491;-63
2023/10/05 01:21:12;;;;;;;4.67;2.40;;;14.20;99.90;;;;;;4977868;28;20612;-63
2023/10/05 01:23:44;;;;;;;5.03;2.97;;;14.10;99.90;;;;;;4982859;28;20496;-63
2023/10/05 01:26:12;;;;;;;6.97;3.00;;;14.10;99.90;;;;;;4976670;28;20480;-63
2023/10/05 01:28:41;;;;;;;4.77;2.50;;;14.10;99.90;;;;;;4980749;28;20503;-63
2023/10/05 01:31:16;;;;;;;5.73;2.60;;;14.10;99.90;;;;;;4983485;28;20480;-63
2023/10/05 01:33:46;;;;;;;6.17;3.00;;;14.10;99.90;;;;;;4985426;28;20489;-63
2023/10/05 01:36:15;;;;;;;6.63;2.80;;;14.00;99.90;;;;;;4973795;28;20481;-63
2023/10/05 01:38:47;;;;;;;5.20;2.93;;;14.10;99.90;;;;;;4986117;28;20468;-64
2023/10/05 01:41:20;;;;;;;4.57;2.60;;;14.00;99.90;;;;;;4979533;28;21004;-64
2023/10/05 01:43:48;;;;;;;5.60;2.50;;;14.00;99.90;;;;;;4983622;28;20484;-63
2023/10/05 01:46:17;;;;;;;8.40;3.17;;;14.10;99.90;;;;;;4981954;28;20512;-63
2023/10/05 01:48:45;;;;;;;4.20;2.70;;;14.10;99.90;;;;;;4981601;28;20490;-63
2023/10/05 01:51:19;;;;;;;4.93;2.57;;;14.00;99.90;;;;;;4983112;28;20469;-63
2023/10/05 01:53:52;;;;;;;6.30;2.90;;;14.00;99.90;;;;;;4986687;28;20720;-63
2023/10/05 01:56:22;;;;;;;3.90;2.87;;;14.00;99.90;;;;;;4985081;28;21003;-63
2023/10/05 01:58:50;;;;;;;4.70;2.40;;;14.00;99.90;;;;;;4984462;28;20477;-63
2023/10/05 02:01:20;;;;;;;4.80;2.50;;;14.00;99.90;;;;;;4987737;28;20516;-64
2023/10/05 02:03:50;;;;;;;3.40;2.43;;;14.00;99.90;;;;;;4991913;28;20501;-63
2023/10/05 02:06:18;;;;;;;5.20;2.97;;;14.00;99.90;;;;;;4991416;28;20496;-63
2023/10/05 02:08:47;;;;;;;5.40;2.87;;;14.10;99.90;;;;;;4989551;28;20556;-63
2023/10/05 02:11:23;;;;;;;3.63;2.60;;;14.10;99.90;;;;;;4991028;28;20509;-63
2023/10/05 02:13:52;;;;;;;4.40;2.60;;;14.00;99.90;;;;;;4990573;28;20503;-63
2023/10/05 02:16:21;;;;;;;6.70;2.57;;;14.00;99.90;;;;;;4992990;28;20489;-63
2023/10/05 02:18:51;;;;;;;5.13;2.60;;;14.10;99.90;;;;;;4978094;28;20477;-63
2023/10/05 02:21:27;;;;;;;7.30;2.67;;;14.10;99.90;;;;;;4975649;28;20595;-63
2023/10/05 02:24:10;;;;;;;4.80;2.73;;;14.00;99.90;;;;;;4982893;28;20498;-64
2023/10/05 02:26:53;;;;;;;4.93;2.40;;;13.90;99.90;;;;;;4987752;28;20915;-64
2023/10/05 02:29:23;;;;;;;3.70;2.07;;;13.90;99.90;;;;;;4983129;28;21483;-63
2023/10/05 02:32:05;;;;;;;4.60;2.93;;;13.90;99.90;;;;;;4979315;28;20484;-63
2023/10/05 02:34:39;;;;;;;4.00;2.30;;;13.90;99.90;;;;;;4981001;28;21133;-63
2023/10/05 02:37:11;;;;;;;4.10;2.20;;;13.90;99.90;;;;;;4980810;28;20471;-63
2023/10/05 02:39:41;;;;;;;4.00;2.30;;;13.90;99.90;;;;;;4987234;28;20591;-63
2023/10/05 02:42:13;;;;;;;7.20;2.30;;;13.90;99.90;;;;;;4979521;28;20468;-63
2023/10/05 02:44:42;;;;;;;3.60;2.13;;;13.90;99.90;;;;;;4985640;28;20580;-63
2023/10/05 02:47:13;;;;;;;4.53;2.50;;;13.90;99.90;;;;;;4979282;28;20496;-63
2023/10/05 02:49:44;;;;;;;2.17;1.97;;;13.90;99.90;;;;;;4992375;28;20468;-63
2023/10/05 02:52:14;;;;;;;4.30;2.20;;;13.90;99.90;;;;;;4985963;28;20506;-63
2023/10/05 02:54:44;;;;;;;4.00;2.27;;;13.90;99.90;;;;;;4981573;28;20496;-63
2023/10/05 02:57:14;;;;;;;5.63;2.27;;;13.80;99.90;;;;;;4979142;28;20478;-63
2023/10/05 02:59:42;;;;;;;4.43;2.03;;;13.80;99.90;;;;;;4981354;28;20919;-64
2023/10/05 03:02:14;;;;;;;5.60;2.60;;;13.80;99.90;;;;;;4989537;28;20532;-64
2023/10/05 03:04:46;;;;;;;7.07;3.03;;;13.70;99.90;;;;;;4985210;28;20496;-63
2023/10/05 03:07:16;;;;;;;3.50;2.53;;;13.70;99.90;;;;;;4973935;28;20649;-64
2023/10/05 03:09:46;;;;;;;3.50;2.30;;;13.70;99.90;;;;;;4975872;28;20654;-63
2023/10/05 03:12:20;;;;;;;4.03;2.43;;;13.70;99.90;;;;;;4985393;28;21182;-63
2023/10/05 03:14:50;;;;;;;4.73;2.23;;;13.80;99.90;;;;;;4982941;28;20487;-63
2023/10/05 03:17:21;;;;;;;5.70;2.73;;;13.80;99.90;;;;;;4983385;28;20942;-63
2023/10/05 03:19:51;;;;;;;5.43;2.60;;;13.80;99.90;;;;;;4977635;28;20508;-63
2023/10/05 03:22:23;;;;;;;4.73;2.47;;;13.70;99.90;;;;;;4987904;28;20528;-64
2023/10/05 03:24:53;;;;;;;3.40;2.37;;;13.70;99.90;;;;;;4981939;28;21171;-63
2023/10/05 03:27:22;;;;;;;9.20;2.57;;;13.70;99.90;;;;;;4982739;28;20496;-63
2023/10/05 03:29:52;;;;;;;4.13;2.53;;;13.70;99.90;;;;;;4992986;28;20464;-63
2023/10/05 03:32:20;;;;;;;4.17;2.33;;;13.70;99.90;;;;;;4983302;28;20505;-63
2023/10/05 03:34:55;;;;;;;5.80;2.47;;;13.70;99.90;;;;;;4989461;28;20492;-63
2023/10/05 03:37:23;;;;;;;4.13;2.33;;;13.70;99.90;;;;;;4980426;28;20464;-63
2023/10/05 03:39:53;;;;;;;5.90;2.47;;;13.70;99.90;;;;;;4988568;28;20464;-63
2023/10/05 03:42:22;;;;;;;4.60;2.57;;;13.70;99.90;;;;;;4990285;28;20587;-63
2023/10/05 03:45:00;;;;;;;3.33;2.03;;;13.70;99.90;;;;;;4984631;28;20507;-63
2023/10/05 03:47:29;;;;;;;5.60;2.67;;;13.70;99.90;;;;;;4994391;28;20861;-63
2023/10/05 03:49:57;;;;;;;5.13;2.73;;;13.70;99.90;;;;;;4995624;28;20476;-63
2023/10/05 03:52:29;;;;;;;4.73;2.50;;;13.70;99.90;;;;;;4984296;28;20499;-64
2023/10/05 03:55:04;;;;;;;3.00;2.30;;;13.70;99.90;;;;;;4986233;28;20484;-63
2023/10/05 03:57:33;;;;;;;5.27;2.50;;;13.70;99.90;;;;;;4987871;28;20471;-63
2023/10/05 04:00:16;;;;;;;7.27;2.80;;;13.70;99.90;;;;;;4982689;28;20567;-64
2023/10/05 04:02:44;;;;;;;5.53;3.60;;;13.70;99.90;;;;;;4983535;28;20491;-63
2023/10/05 04:05:12;;;;;;;8.50;3.60;;;13.70;99.90;;;;;;4991272;28;20492;-63
2023/10/05 04:07:40;;;;;;;5.40;2.43;;;13.70;99.90;;;;;;4984588;28;20497;-63
2023/10/05 04:10:15;;;;;;;4.67;2.70;;;13.70;99.90;;;;;;4982668;28;20742;-64
2023/10/05 04:12:43;;;;;;;6.93;3.10;;;13.70;99.90;;;;;;4990903;28;20512;-63
2023/10/05 04:15:13;;;;;;;5.17;2.33;;;13.70;99.90;;;;;;4983310;28;20493;-63
2023/10/05 04:17:42;;;;;;;6.27;3.20;;;13.70;99.90;;;;;;4991424;28;20464;-63
2023/10/05 04:20:17;;;;;;;5.73;2.43;;;13.70;99.90;;;;;;4993050;28;20477;-64
2023/10/05 04:22:47;;;;;;;2.57;1.83;;;13.70;99.90;;;;;;4992581;28;20488;-63
2023/10/05 04:25:17;;;;;;;4.47;2.70;;;13.80;99.90;;;;;;4987115;28;21610;-63
2023/10/05 04:27:47;;;;;;;3.77;2.27;;;13.80;99.90;;;;;;4990446;28;20579;-64
2023/10/05 04:30:18;;;;;;;5.10;2.33;;;13.70;99.90;;;;;;4990700;28;20966;-63
2023/10/05 04:32:46;;;;;;;4.70;2.33;;;13.70;99.90;;;;;;4984365;28;20705;-63
2023/10/05 04:35:22;;;;;;;6.07;2.40;;;13.70;99.90;;;;;;4982923;28;20484;-63
2023/10/05 04:37:51;;;;;;;5.20;2.77;;;13.70;99.90;;;;;;4989346;28;20464;-63
2023/10/05 04:40:23;;;;;;;4.50;3.27;;;13.70;99.90;;;;;;4991127;28;20492;-64
2023/10/05 04:42:51;;;;;;;7.17;2.53;;;13.80;99.90;;;;;;4987080;28;20492;-64
2023/10/05 04:45:20;;;;;;;7.07;2.67;;;13.80;99.90;;;;;;4984973;28;20519;-63
2023/10/05 04:47:49;;;;;;;5.20;2.60;;;13.80;99.90;;;;;;4987601;28;20997;-63
2023/10/05 04:50:17;;;;;;;4.17;2.30;;;13.90;99.90;;;;;;4983471;28;21071;-63
2023/10/05 04:52:50;;;;;;;5.03;2.57;;;13.80;99.90;;;;;;4987015;28;20945;-65
2023/10/05 04:55:23;;;;;;;6.47;2.50;;;13.90;99.90;;;;;;4985044;28;20961;-65
2023/10/05 04:57:55;;;;;;;7.57;2.40;;;13.90;99.90;;;;;;4986008;28;20480;-65
2023/10/05 05:03:33;;;;;;;6.97;3.10;;;14.00;99.90;;;;;;4987442;28;20500;-64
2023/10/05 05:06:10;;;;;;;4.03;2.57;;;14.00;99.90;;;;;;4985956;28;20608;-63
2023/10/05 05:08:39;;;;;;;5.10;2.40;;;14.00;99.90;;;;;;4985718;28;20495;-63
2023/10/05 05:11:18;;;;;;;6.57;2.63;;;14.00;99.90;;;;;;4984319;28;20468;-63
2023/10/05 05:13:47;;;;;;;8.93;2.93;;;13.90;99.90;;;;;;4983105;28;20504;-63
2023/10/05 05:16:16;;;;;;;4.87;3.00;;;13.90;99.90;;;;;;4974922;28;20899;-63
2023/10/05 05:18:44;;;;;;;5.90;3.00;;;13.90;99.90;;;;;;4969948;28;20470;-63
2023/10/05 05:21:13;;;;;;;4.40;3.00;;;13.90;99.90;;;;;;4969415;28;20514;-65
2023/10/05 05:23:41;;;;;;;6.57;4.10;;;13.90;99.90;;;;;;4982194;28;20576;-64
2023/10/05 05:26:12;;;;;;;8.43;2.70;;;13.90;99.90;;;;;;4979804;28;20837;-63
2023/10/05 05:28:43;;;;;;;6.57;2.87;;;13.80;99.90;;;;;;4983974;28;20506;-63
2023/10/05 05:31:16;;;;;;;5.73;3.03;;;13.90;99.90;;;;;;4981668;28;20465;-63
2023/10/05 05:33:45;;;;;;;5.20;2.50;;;13.80;99.90;;;;;;4980836;28;20496;-63
2023/10/05 05:36:13;;;;;;;3.80;2.67;;;13.80;99.90;;;;;;4988089;28;20542;-64
2023/10/05 05:38:47;;;;;;;5.13;2.40;;;13.90;99.90;;;;;;4985473;28;20491;-63
2023/10/05 05:41:19;;;;;;;6.93;2.50;;;13.90;99.90;;;;;;4989537;28;20861;-64
2023/10/05 05:43:47;;;;;;;5.33;3.20;;;13.80;99.90;;;;;;4988898;28;20485;-63
2023/10/05 05:46:16;;;;;;;7.23;3.40;;;13.80;99.90;;;;;;4981159;28;20952;-63
2023/10/05 05:48:48;;;;;;;6.87;2.50;;;13.80;99.90;;;;;;4978744;28;20555;-63
2023/10/05 05:51:17;;;;;;;6.10;2.87;;;13.80;99.90;;;;;;4983793;28;20506;-63
2023/10/05 05:53:46;;;;;;;3.47;2.30;;;13.80;99.90;;;;;;4985864;28;20511;-64
2023/10/05 05:56:18;;;;;;;6.97;3.60;;;13.90;99.90;;;;;;4981770;28;20487;-63
2023/10/05 05:58:47;;;;;;;5.07;2.93;;;13.80;99.90;;;;;;4990529;28;20472;-63
2023/10/05 06:01:15;;;;;;;6.00;3.00;;;13.80;99.90;;;;;;4986452;28;20509;-63
2023/10/05 06:03:47;;;;;;;6.90;3.53;;;13.80;99.90;;;;;;4987060;28;20489;-63
2023/10/05 06:06:15;;;;;;;6.53;3.17;;;13.80;99.90;;;;;;4987890;28;20501;-63
2023/10/05 06:08:44;;;;;;;9.33;3.57;;;13.70;99.90;;;;;;4991588;28;21270;-63
2023/10/05 06:11:14;;;;;;;8.73;3.57;;;13.70;99.90;;;;;;4995383;28;20494;-63
2023/10/05 06:13:45;;;;;;;8.17;3.60;;;13.70;99.90;;;;;;4989219;28;21088;-63
2023/10/05 06:16:14;;;;;;;5.00;3.00;;;13.70;99.90;;;;;;4984798;28;21656;-63
2023/10/05 06:18:43;;;;;;;5.20;2.60;;;13.70;99.90;;;;;;4983236;28;20833;-63
2023/10/05 06:21:12;;;;;;;10.63;3.70;;;13.70;99.90;;;;;;4986648;28;20505;-63
2023/10/05 06:23:40;;;;;;;6.37;3.77;;;13.70;99.90;;;;;;4993659;28;20501;-63
2023/10/05 06:26:08;;;;;;;8.70;3.40;;;13.60;99.90;;;;;;4993283;28;20489;-63
2023/10/05 06:28:36;;;;;;;6.43;3.23;;;13.60;99.90;;;;;;4994862;28;20939;-63
2023/10/05 06:31:06;;;;;;;11.20;3.90;;;13.60;99.90;;;;;;4991827;28;20487;-63
2023/10/05 06:33:34;;;;;;;5.47;3.10;;;13.60;99.90;;;;;;4983434;28;20509;-63
2023/10/05 06:36:03;;;;;;;7.70;3.60;;;13.60;99.90;;;;;;4990230;28;20885;-64
2023/10/05 06:38:31;;;;;;;7.37;3.70;;;13.70;99.90;;;;;;4986462;28;20472;-63
2023/10/05 06:40:59;;;;;;;9.73;3.80;;;13.60;99.90;;;;;;4996121;28;20477;-63
2023/10/05 06:43:27;;;;;;;9.90;3.43;;;13.60;99.90;;;;;;4993360;28;20523;-63
2023/10/05 06:46:08;;;;;;;7.23;3.53;;;13.60;99.90;;;;;;4993403;28;20610;-63
2023/10/05 06:48:40;;;;;;;5.60;3.43;;;13.60;99.90;;;;;;4988382;28;20478;-63
2023/10/05 06:51:08;;;;;;;6.97;3.63;;;13.60;99.90;;;;;;4988049;28;21022;-64
2023/10/05 06:53:37;;;;;;;6.77;4.20;;;13.70;99.90;;;;;;4990253;28;20504;-63
2023/10/05 06:56:06;;;;;;;4.30;3.10;;;13.70;99.90;;;;;;4988203;28;20487;-63
2023/10/05 06:58:35;;;;;;;5.90;2.93;;;13.60;99.90;;;;;;4985056;28;20468;-63
2023/10/05 07:01:04;;;;;;;8.13;3.20;;;13.70;99.90;;;;;;4984872;28;20528;-63
2023/10/05 07:03:32;;;;;;;4.50;2.90;;;13.60;99.90;;;;;;4981651;28;20497;-63
2023/10/05 07:06:04;;;;;;;4.87;3.17;;;13.60;99.90;;;;;;4984202;28;20519;-63
2023/10/05 07:08:32;;;;;;;4.70;3.20;;;13.60;99.90;;;;;;4987954;28;20934;-63
2023/10/05 07:11:00;;;;;;;4.20;2.90;;;13.60;99.90;;;;;;4980695;28;20504;-63
2023/10/05 07:13:29;;;;;;;5.33;2.83;;;13.60;99.90;;;;;;4983684;28;21313;-63
2023/10/05 07:15:58;;;;;;;3.87;2.30;;;13.60;99.90;;;;;;4990346;28;20504;-63
2023/10/05 07:18:27;;;;;;;5.40;3.03;;;13.60;99.90;;;;;;4991275;28;20472;-63
2023/10/05 07:20:57;;;;;;;3.00;2.47;;;13.70;99.90;;;;;;4985738;28;20473;-63
2023/10/05 07:23:29;;;;;;;5.73;3.17;;;13.60;99.90;;;;;;4989607;28;20499;-64
2023/10/05 07:25:57;;;;;;;5.67;3.23;;;13.60;99.90;;;;;;4988640;28;21186;-64
2023/10/05 07:28:25;;;;;;;2.83;2.30;;;13.60;99.90;;;;;;4992128;28;20597;-64
2023/10/05 07:30:56;;;;;;;3.10;2.20;;;13.60;99.90;;;;;;4991038;28;20984;-63
2023/10/05 07:33:24;;;;;;;2.47;2.27;;;13.60;99.90;;;;;;4987991;28;20488;-63
2023/10/05 07:35:53;;;;;;;3.87;2.53;;;13.60;99.90;;;;;;4994431;28;20503;-63
2023/10/05 07:38:26;;;;;;;3.20;2.30;;;13.60;99.90;;;;;;4992196;28;20484;-64
2023/10/05 07:40:56;;;;;;;2.90;2.23;;;13.50;99.90;;;;;;4990080;28;20490;-63
2023/10/05 07:43:27;;;;;;;4.47;2.87;;;13.50;99.90;;;;;;4992432;28;20575;-63
2023/10/05 07:45:55;;;;;;;2.53;2.20;;;13.50;99.90;;;;;;4991117;28;20567;-63
2023/10/05 07:48:23;;;;;;;2.80;2.20;;;13.50;99.90;;;;;;4992613;28;20823;-64
2023/10/05 07:50:51;;;;;;;2.67;2.17;;;13.60;99.90;;;;;;4995209;28;21013;-64
2023/10/05 07:53:20;;;;;;;1.80;1.60;;;13.60;99.90;;;;;;4997147;28;20495;-63
2023/10/05 07:55:51;;;;;;;2.93;1.93;;;13.60;99.90;;;;;;4989804;28;20492;-64
2023/10/05 07:58:20;;;;;;;2.37;1.30;;;13.60;99.90;;;;;;4986472;28;20571;-64
2023/10/05 08:00:48;;;;;;;1.70;1.23;;;13.60;99.90;;;;;;4988039;28;20460;-63
2023/10/05 08:03:17;;;;;;;2.40;1.50;;;13.70;99.90;;;;;;4991822;28;21551;-63
2023/10/05 08:05:45;;;;;;;3.53;1.40;;;13.70;99.90;;;;;;4990751;28;20483;-64
2023/10/05 08:08:14;;;;;;;1.83;1.30;;;13.70;99.90;;;;;;4997485;28;20913;-63
2023/10/05 08:10:43;;;;;;;2.23;1.77;;;13.70;99.90;;;;;;4994429;28;20518;-64
2023/10/05 08:13:11;;;;;;;1.73;1.47;;;13.70;99.90;;;;;;4987740;28;20491;-64
2023/10/05 08:15:41;;;;;;;2.23;1.20;;;13.70;99.90;;;;;;4985376;28;20587;-64
2023/10/05 08:18:09;;;;;;;1.57;1.33;;;13.70;99.90;;;;;;4994734;28;20511;-63
2023/10/05 08:20:37;;;;;;;1.80;1.07;;;13.70;99.90;;;;;;4994977;28;20569;-64
2023/10/05 08:23:06;;;;;;;1.40;1.30;;;13.70;99.90;;;;;;4989456;28;20493;-64
2023/10/05 08:25:34;;;;;;;1.17;1.07;;;13.70;99.90;;;;;;4993142;28;20575;-63
2023/10/05 08:28:03;;;;;;;1.80;1.10;;;13.70;99.90;;;;;;4986086;28;21099;-64
2023/10/05 08:30:37;;;;;;;2.13;1.30;;;13.70;99.90;;;;;;4984474;28;20492;-64
2023/10/05 08:33:10;;;;;;;1.77;1.33;;;13.80;99.90;;;;;;4993054;28;21034;-63
2023/10/05 08:35:40;;;;;;;1.63;1.30;;;13.80;99.90;;;;;;4985355;28;20546;-64
2023/10/05 08:38:15;;;;;;;1.70;1.37;;;13.80;99.90;;;;;;4985818;28;20607;-64
2023/10/05 08:40:45;;;;;;;1.50;1.40;;;13.90;99.90;;;;;;4988236;28;20469;-64
2023/10/05 08:43:16;;;;;;;1.23;1.10;;;14.00;99.90;;;;;;4986802;28;20875;-64
2023/10/05 08:45:51;;;;;;;1.23;1.13;;;14.10;99.90;;;;;;4992002;28;21017;-64
2023/10/05 08:48:28;;;;;;;1.40;1.17;;;14.10;99.90;;;;;;4987070;28;20889;-63
2023/10/05 08:51:09;;;;;;;1.67;1.40;;;14.20;99.90;;;;;;4985648;28;20514;-64
2023/10/05 08:53:41;;;;;;;1.63;1.00;;;14.20;99.90;;;;;;4986280;28;20599;-64
2023/10/05 08:56:15;;;;;;;2.93;1.43;;;14.20;99.90;;;;;;4987174;28;20493;-64
2023/10/05 08:58:46;;;;;;;1.57;1.10;;;14.30;99.90;;;;;;4985046;28;20471;-64
2023/10/05 09:01:25;;;;;;;1.60;1.50;;;14.30;99.90;;;;;;4991511;28;20465;-64
2023/10/05 09:04:11;;;;;;;1.13;1.00;;;14.30;99.90;;;;;;4992425;28;20504;-64
2023/10/05 09:06:48;;;;;;;1.77;1.50;;;14.30;99.90;;;;;;4991880;28;20512;-64
2023/10/05 09:09:17;;;;;;;1.07;0.97;;;14.40;99.90;;;;;;4986919;28;21247;-64
2023/10/05 09:11:45;;;;;;;1.50;1.30;;;14.40;99.90;;;;;;4984186;28;20599;-64
2023/10/05 09:14:23;;;;;;;2.17;1.90;;;14.40;99.90;;;;;;4987153;28;20495;-64
2023/10/05 09:16:55;;;;;;;3.90;1.13;;;14.50;99.90;;;;;;4992961;28;20472;-64
2023/10/05 09:19:29;;;;;;;2.17;1.20;;;14.50;99.90;;;;;;4990753;28;20842;-64
2023/10/05 09:22:10;;;;;;;2.47;1.50;;;14.60;99.90;;;;;;4986098;28;20465;-64
2023/10/05 09:24:43;;;;;;;2.20;1.13;;;14.60;99.90;;;;;;4991892;28;20496;-64
2023/10/05 09:27:15;;;;;;;2.40;1.03;;;14.60;99.90;;;;;;4988559;28;20477;-64
2023/10/05 09:29:43;;;;;;;3.37;1.30;;;14.70;99.90;;;;;;4994441;28;20512;-64
2023/10/05 09:32:25;;;;;;;2.80;1.20;;;14.80;99.90;;;;;;4988804;28;20492;-64
2023/10/05 09:34:57;;;;;;;1.70;1.10;;;14.90;99.90;;;;;;4985585;28;21088;-64
2023/10/05 09:37:27;;;;;;;2.10;0.97;;;15.10;99.90;;;;;;4991416;28;20846;-64
2023/10/05 09:40:00;;;;;;;2.20;1.03;;;15.20;99.90;;;;;;4993386;28;20560;-64
2023/10/05 09:42:33;;;;;;;1.53;1.10;;;15.40;99.90;;;;;;4988120;28;20574;-64
2023/10/05 09:45:08;;;;;;;2.07;1.37;;;15.40;99.90;;;;;;4991305;28;20582;-64
2023/10/05 09:47:40;;;;;;;2.17;1.07;;;15.30;99.90;;;;;;4986535;28;20993;-64
2023/10/05 09:50:15;;;;;;;3.03;1.87;;;15.40;99.90;;;;;;4983464;28;20506;-64
2023/10/05 09:52:45;;;;;;;2.13;1.00;;;15.40;99.90;;;;;;4986186;28;20499;-64
2023/10/05 09:55:17;;;;;;;3.30;1.40;;;15.60;99.90;;;;;;4991044;28;20511;-64
2023/10/05 09:57:51;;;;;;;3.53;1.27;;;15.70;99.90;;;;;;4990654;28;20475;-64
2023/10/05 10:00:30;;;;;;;3.10;1.10;;;15.80;99.90;;;;;;4990780;28;20471;-63
2023/10/05 10:03:00;;;;;;;3.00;1.33;;;15.70;99.90;;;;;;4991000;28;20490;-64
2023/10/05 10:05:34;;;;;;;3.90;1.43;;;15.80;99.90;;;;;;4988932;28;20492;-64
2023/10/05 10:08:09;;;;;;;4.47;1.10;;;15.80;99.90;;;;;;4989462;28;20514;-64
2023/10/05 10:10:51;;;;;;;3.00;1.10;;;15.90;99.90;;;;;;4987223;28;21000;-64
2023/10/05 10:13:21;;;;;;;4.50;1.27;;;16.00;99.90;;;;;;4993882;28;20502;-64
2023/10/05 10:15:53;;;;;;;2.43;1.20;;;16.00;99.90;;;;;;4986412;28;20947;-63
2023/10/05 10:18:37;;;;;;;2.70;1.60;;;16.00;99.90;;;;;;4986612;28;20558;-64
2023/10/05 10:21:12;;;;;;;3.80;1.57;;;16.00;99.90;;;;;;4985608;28;21001;-64
2023/10/05 10:23:44;;;;;;;3.10;1.50;;;16.00;99.90;;;;;;4988566;28;20877;-64
2023/10/05 10:26:20;;;;;;;3.20;1.87;;;16.10;99.90;;;;;;4989585;28;20488;-64
2023/10/05 10:28:56;;;;;;;3.60;1.80;;;16.20;99.90;;;;;;4992302;28;20959;-64
2023/10/05 10:31:47;;;;;;;2.47;1.40;;;16.30;99.90;;;;;;4986615;28;20491;-64
2023/10/05 10:34:42;;;;;;;3.13;1.33;;;16.40;99.90;;;;;;4982824;28;20525;-63
2023/10/05 10:37:39;;;;;;;3.53;1.43;;;16.50;99.90;;;;;;4990246;28;20924;-63
2023/10/05 10:40:15;;;;;;;4.40;2.17;;;16.40;99.90;;;;;;4989750;28;20577;-64
2023/10/05 10:42:50;;;;;;;4.00;2.10;;;16.30;99.90;;;;;;4990323;28;20491;-64
2023/10/05 10:45:23;;;;;;;5.40;1.60;;;16.30;99.90;;;;;;4985881;28;20497;-64
2023/10/05 10:47:52;;;;;;;6.00;1.77;;;16.40;99.90;;;;;;4988157;28;20570;-64
2023/10/05 10:50:29;;;;;;;3.57;1.80;;;16.50;99.90;;;;;;4991644;28;20467;-64
2023/10/05 10:52:59;;;;;;;3.80;1.67;;;16.50;99.90;;;;;;4994316;28;20531;-64
2023/10/05 10:55:31;;;;;;;4.43;1.80;;;16.70;99.90;;;;;;4992908;28;20489;-64
2023/10/05 10:58:08;;;;;;;3.43;1.43;;;16.80;99.90;;;;;;4990565;28;20473;-64
2023/10/05 11:00:54;;;;;;;4.90;1.67;;;16.70;99.90;;;;;;4999053;28;20556;-64
2023/10/05 11:03:24;;;;;;;2.10;1.53;;;16.70;99.90;;;;;;4989240;28;21002;-64
2023/10/05 11:05:54;;;;;;;4.83;1.77;;;16.70;99.90;;;;;;4992015;28;20495;-64
2023/10/05 11:08:23;;;;;;;3.40;1.70;;;16.90;99.90;;;;;;4994431;28;20982;-64
2023/10/05 11:11:00;;;;;;;2.70;1.33;;;17.10;99.90;;;;;;4995057;28;20949;-64
2023/10/05 11:13:28;;;;;;;5.20;2.13;;;17.20;99.90;;;;;;4991221;28;20500;-65
2023/10/05 11:15:59;;;;;;;4.20;1.77;;;17.20;99.90;;;;;;4995765;28;20492;-64
2023/10/05 11:18:30;;;;;;;2.80;1.50;;;17.30;99.90;;;;;;4992524;28;20678;-64
2023/10/05 11:21:06;;;;;;;4.27;1.83;;;17.40;99.90;;;;;;4990811;28;20467;-64
2023/10/05 11:23:45;;;;;;;4.43;1.50;;;17.40;99.90;;;;;;4997101;28;20550;-64
2023/10/05 11:26:26;;;;;;;3.97;1.47;;;17.60;99.90;;;;;;4990246;28;20531;-64
2023/10/05 11:28:59;;;;;;;2.70;1.33;;;17.70;99.90;;;;;;4992051;28;20982;-64
2023/10/05 11:31:33;;;;;;;3.67;1.60;;;17.90;99.90;;;;;;4992044;28;20535;-64
2023/10/05 11:34:28;;;;;;;4.10;1.30;;;18.00;99.90;;;;;;4991376;28;20488;-65
2023/10/05 11:37:18;;;;;;;2.10;1.30;;;18.20;99.90;;;;;;4993038;28;20460;-64
2023/10/05 11:39:49;;;;;;;5.90;1.57;;;18.40;99.90;;;;;;4991127;28;20479;-64
2023/10/05 11:42:24;;;;;;;4.23;1.87;;;18.70;99.90;;;;;;4992606;28;20473;-64
2023/10/05 11:44:55;;;;;;;3.47;1.67;;;18.80;99.90;;;;;;4991252;28;20483;-64
2023/10/05 11:47:32;;;;;;;4.70;2.00;;;18.90;99.90;;;;;;4996946;28;20969;-64
2023/10/05 11:50:06;;;;;;;8.03;1.93;;;19.10;99.90;;;;;;4995128;28;20483;-64
2023/10/05 11:52:37;;;;;;;2.80;1.63;;;19.20;99.90;;;;;;4997238;28;20529;-64
2023/10/05 11:55:11;;;;;;;4.30;1.63;;;19.00;99.90;;;;;;4990402;28;20587;-64
2023/10/05 11:57:40;;;;;;;5.33;1.67;;;19.00;99.90;;;;;;4991821;28;20480;-64
2023/10/05 12:00:11;;;;;;;2.60;1.30;;;19.30;99.90;;;;;;4990573;28;20577;-64
2023/10/05 12:02:40;;;;;;;5.90;1.50;;;19.50;99.90;;;;;;4989461;28;20602;-64
2023/10/05 12:05:09;;;;;;;2.93;1.20;;;19.90;99.90;;;;;;4996946;28;20558;-65
2023/10/05 12:07:41;;;;;;;3.87;1.57;;;20.40;99.90;;;;;;4995974;28;20478;-64
2023/10/05 12:10:13;;;;;;;4.30;1.40;;;20.80;99.90;;;;;;4993575;28;20473;-64
2023/10/05 12:12:45;;;;;;;1.67;1.13;;;21.50;99.90;;;;;;4987962;28;21014;-64
2023/10/05 12:15:17;;;;;;;3.23;1.60;;;22.40;99.90;;;;;;4993692;28;20519;-64
2023/10/05 12:17:46;;;;;;;3.33;1.20;;;23.60;99.90;;;;;;4993703;28;21443;-64
2023/10/05 12:20:15;;;;;;;2.00;1.50;;;24.70;99.90;;;;;;4992994;28;21002;-64
2023/10/05 12:22:45;;;;;;;3.10;1.33;;;25.80;99.10;;;;;;4992178;28;21922;-64
2023/10/05 12:25:15;;;;;;;2.57;1.30;;;26.90;88.30;;;;;;4991893;28;20840;-64
2023/10/05 12:27:45;;;;;;;2.90;1.50;;;27.10;83.20;;;;;;4993315;28;20480;-64
2023/10/05 12:30:15;;;;;;;2.70;1.50;;;28.40;74.30;;;;;;4995678;28;20563;-64
2023/10/05 12:32:45;;;;;;;3.03;1.30;;;29.90;69.40;;;;;;4995845;28;20508;-62
2023/10/05 12:35:14;;;;;;;3.03;1.30;;;31.70;60.70;;;;;;4991846;28;20499;-63
2023/10/05 12:37:44;;;;;;;3.30;1.50;;;33.00;54.40;;;;;;4992400;28;20668;-63
2023/10/05 12:40:20;;;;;;;3.33;1.40;;;34.00;49.00;;;;;;4992528;28;20957;-63
2023/10/05 12:42:52;;;;;;;3.17;1.60;;;34.60;45.30;;;;;;4985302;28;21196;-63
2023/10/05 12:45:40;;;;;;;2.95;1.42;;;35.30;42.80;;;;;;4986241;28;21218;-64
2023/10/05 12:48:08;;;;;;;3.60;1.83;;;36.30;39.60;;;;;;4985990;28;20727;-65
2023/10/05 12:50:36;;;;;;;2.00;1.10;;;36.50;38.40;;;;;;4988519;28;20209;-66
2023/10/05 12:53:05;;;;;;;1.45;1.17;;;36.90;38.20;;;;;;4986569;28;20230;-65
2023/10/05 12:55:37;;;;;;;1.63;1.25;;;37.20;37.50;;;;;;4987133;28;20233;-65
2023/10/05 12:58:08;;;;;;;2.65;1.45;;;37.40;35.30;;;;;;4994656;28;20209;-64
2023/10/05 13:00:40;;;;;;;2.05;1.40;;;37.50;35.80;;;;;;4995039;28;20208;-64
2023/10/05 13:03:11;;;;;;;1.60;1.20;;;37.40;34.20;;;;;;4991512;28;20243;-65
2023/10/05 13:05:43;;;;;;;1.95;1.15;;;37.20;33.90;;;;;;4994756;28;20237;-64
2023/10/05 13:08:11;;;;;;;2.33;1.40;;;36.80;33.70;;;;;;4992806;28;20320;-64
2023/10/05 13:10:43;;;;;;;2.53;1.10;;;36.50;31.50;;;;;;4994055;28;20268;-64
2023/10/05 13:13:17;;;;;;;2.17;1.17;;;36.00;31.70;;;;;;4990964;28;20271;-64